createdAt,value
2022-11-01T00:00:00.550Z,458.70
2022-11-01T00:01:00.540Z,453.80
2022-11-01T00:02:00.593Z,454.60
2022-11-01T00:03:00.517Z,461.50
2022-11-01T00:04:00.486Z,467.00
2022-11-01T00:05:00.513Z,459.80
2022-11-01T00:06:00.477Z,461.40
2022-11-01T00:07:00.485Z,462.30
2022-11-01T00:08:00.830Z,461.30
2022-11-01T00:09:00.443Z,458.50
2022-11-01T00:10:00.446Z,457.90
2022-11-01T00:11:00.406Z,451.50
2022-11-01T00:12:00.406Z,457.20
2022-11-01T00:13:00.577Z,460.80
2022-11-01T00:14:00.391Z,453.60
2022-11-01T00:15:00.413Z,460.10
2022-11-01T00:16:00.345Z,451.20
2022-11-01T00:17:00.335Z,453.30
2022-11-01T00:18:00.324Z,456.90
2022-11-01T00:19:00.311Z,461.20
2022-11-01T00:20:00.349Z,454.10
2022-11-01T00:21:00.289Z,449.30
2022-11-01T00:22:00.292Z,450.80
2022-11-01T00:23:00.647Z,453.20
2022-11-01T00:24:00.263Z,457.90
2022-11-01T00:25:00.291Z,457.50
2022-11-01T00:26:00.245Z,462.30
2022-11-01T00:27:00.281Z,463.20
2022-11-01T00:28:00.672Z,465.40
2022-11-01T00:29:00.213Z,469.40
2022-11-01T00:30:00.235Z,477.00
2022-11-01T00:31:00.175Z,475.30
2022-11-01T00:32:00.161Z,480.60
2022-11-01T00:33:00.175Z,476.20
2022-11-01T00:34:00.150Z,488.80
2022-11-01T00:35:00.185Z,475.50
2022-11-01T00:36:00.151Z,485.10
2022-11-01T00:37:00.134Z,493.80
2022-11-01T00:38:00.499Z,493.70
2022-11-01T00:39:00.111Z,495.50
2022-11-01T00:40:00.103Z,502.80
2022-11-01T00:41:00.072Z,503.40
2022-11-01T00:42:00.069Z,505.50
2022-11-01T00:43:00.051Z,503.30
2022-11-01T00:44:00.043Z,501.20
2022-11-01T00:45:00.087Z,504.10
2022-11-01T00:46:00.008Z,508.90
2022-11-01T00:47:00.010Z,497.10
2022-11-01T00:48:00.246Z,470.90
2022-11-01T00:48:59.989Z,475.70
2022-11-01T00:50:00.011Z,491.30
2022-11-01T00:50:59.966Z,485.80
2022-11-01T00:51:59.935Z,480.30
2022-11-01T00:52:59.919Z,482.00
2022-11-01T00:53:59.907Z,484.00
2022-11-01T00:54:59.943Z,472.60
2022-11-01T00:55:59.902Z,469.90
2022-11-01T00:56:59.896Z,468.80
2022-11-01T00:58:00.169Z,466.90
2022-11-01T00:58:59.900Z,469.40
2022-11-01T00:59:59.853Z,481.00
2022-11-01T01:00:59.942Z,473.80
2022-11-01T01:01:59.949Z,445.40
2022-11-01T01:03:00.167Z,540.50
2022-11-01T01:03:59.838Z,549.20
2022-11-01T01:04:59.783Z,539.70
2022-11-01T01:05:59.795Z,541.80
2022-11-01T01:06:59.773Z,540.90
2022-11-01T01:07:59.781Z,553.80
2022-11-01T01:08:59.760Z,543.40
2022-11-01T01:09:59.774Z,542.20
2022-11-01T01:10:59.739Z,543.80
2022-11-01T01:11:59.714Z,544.40
2022-11-01T01:13:00.006Z,538.40
2022-11-01T01:13:59.686Z,544.10
2022-11-01T01:14:59.720Z,551.70
2022-11-01T01:15:59.672Z,537.10
2022-11-01T01:16:59.673Z,538.40
2022-11-01T01:17:59.889Z,540.20
2022-11-01T01:18:59.652Z,527.30
2022-11-01T01:19:59.659Z,527.30
2022-11-01T01:20:59.623Z,539.60
2022-11-01T01:21:59.644Z,538.90
2022-11-01T01:22:59.603Z,542.90
2022-11-01T01:23:59.594Z,538.30
2022-11-01T01:24:59.625Z,541.60
2022-11-01T01:25:59.566Z,532.20
2022-11-01T01:26:59.553Z,536.90
2022-11-01T01:27:59.752Z,534.90
2022-11-01T01:28:59.525Z,523.80
2022-11-01T01:29:59.540Z,526.80
2022-11-01T01:30:59.499Z,538.10
2022-11-01T01:31:59.502Z,529.70
2022-11-01T01:32:59.531Z,530.10
2022-11-01T01:33:59.474Z,530.70
2022-11-01T01:34:59.506Z,524.60
2022-11-01T01:35:59.458Z,534.80
2022-11-01T01:36:59.523Z,520.90
2022-11-01T01:37:59.740Z,526.80
2022-11-01T01:38:59.424Z,534.00
2022-11-01T01:39:59.450Z,528.00
2022-11-01T01:40:59.377Z,527.90
2022-11-01T01:41:59.370Z,533.20
2022-11-01T01:42:59.392Z,518.70
2022-11-01T01:43:59.354Z,519.60
2022-11-01T01:44:59.384Z,530.70
2022-11-01T01:45:59.333Z,519.70
2022-11-01T01:46:59.344Z,498.30
2022-11-01T01:47:59.634Z,504.80
2022-11-01T01:48:59.302Z,492.80
2022-11-01T01:49:59.317Z,489.80
2022-11-01T01:50:59.276Z,494.00
2022-11-01T01:51:59.277Z,489.20
2022-11-01T01:52:59.473Z,491.40
2022-11-01T01:53:59.251Z,508.40
2022-11-01T01:54:59.250Z,497.80
2022-11-01T01:55:59.252Z,497.80
2022-11-01T01:56:59.225Z,502.40
2022-11-01T01:57:59.191Z,498.30
2022-11-01T01:58:59.203Z,501.10
2022-11-01T01:59:59.231Z,485.00
2022-11-01T02:00:59.441Z,496.60
2022-11-01T02:01:59.231Z,495.90
2022-11-01T02:02:59.354Z,499.10
2022-11-01T02:03:59.114Z,509.10
2022-11-01T02:04:59.112Z,506.00
2022-11-01T02:05:59.119Z,515.30
2022-11-01T02:06:59.098Z,505.00
2022-11-01T02:07:59.387Z,498.50
2022-11-01T02:08:59.079Z,505.40
2022-11-01T02:09:59.048Z,493.60
2022-11-01T02:10:59.095Z,513.90
2022-11-01T02:11:59.026Z,505.20
2022-11-01T02:12:59.033Z,496.70
2022-11-01T02:13:59.013Z,487.20
2022-11-01T02:14:59.022Z,491.90
2022-11-01T02:15:59.040Z,485.60
2022-11-01T02:16:58.974Z,481.00
2022-11-01T02:17:59.204Z,487.00
2022-11-01T02:18:58.964Z,490.20
2022-11-01T02:19:58.954Z,484.50
2022-11-01T02:20:58.987Z,486.10
2022-11-01T02:21:58.928Z,475.00
2022-11-01T02:22:59.010Z,483.30
2022-11-01T02:23:58.919Z,489.70
2022-11-01T02:24:58.901Z,490.50
2022-11-01T02:25:58.907Z,493.70
2022-11-01T02:26:58.880Z,489.60
2022-11-01T02:27:58.854Z,477.90
2022-11-01T02:29:03.092Z,475.60
2022-11-01T02:29:59.841Z,481.90
2022-11-01T02:30:58.860Z,480.60
2022-11-01T02:31:58.812Z,466.10
2022-11-01T02:32:58.938Z,473.80
2022-11-01T02:33:58.791Z,468.20
2022-11-01T02:34:58.781Z,490.00
2022-11-01T02:35:58.803Z,483.90
2022-11-01T02:36:58.763Z,478.60
2022-11-01T02:37:58.758Z,474.60
2022-11-01T02:38:58.738Z,472.50
2022-11-01T02:39:58.705Z,474.90
2022-11-01T02:40:58.731Z,480.50
2022-11-01T02:41:58.701Z,467.40
2022-11-01T02:42:58.761Z,462.20
2022-11-01T02:43:58.656Z,466.20
2022-11-01T02:44:58.680Z,475.50
2022-11-01T02:45:58.703Z,473.70
2022-11-01T02:46:58.660Z,469.50
2022-11-01T02:47:58.640Z,461.10
2022-11-01T02:48:58.639Z,460.70
2022-11-01T02:49:58.605Z,473.70
2022-11-01T02:50:58.641Z,477.00
2022-11-01T02:51:58.605Z,482.90
2022-11-01T02:52:58.753Z,471.50
2022-11-01T02:53:58.581Z,490.20
2022-11-01T02:54:58.561Z,481.10
2022-11-01T02:55:58.579Z,469.80
2022-11-01T02:56:58.536Z,462.80
2022-11-01T02:57:58.657Z,472.30
2022-11-01T02:58:58.519Z,461.20
2022-11-01T02:59:58.497Z,461.70
2022-11-01T03:00:58.590Z,490.80
2022-11-01T03:01:58.606Z,489.40
2022-11-01T03:02:58.484Z,485.40
2022-11-01T03:03:58.459Z,476.40
2022-11-01T03:04:58.439Z,480.40
2022-11-01T03:05:58.468Z,482.60
2022-11-01T03:06:58.415Z,462.90
2022-11-01T03:07:58.476Z,457.50
2022-11-01T03:08:58.394Z,431.80
2022-11-01T03:09:58.394Z,399.20
2022-11-01T03:10:58.402Z,342.40
2022-11-01T03:11:58.370Z,316.20
2022-11-01T03:12:58.354Z,303.20
2022-11-01T03:13:58.335Z,324.30
2022-11-01T03:14:58.316Z,334.60
2022-11-01T03:15:58.340Z,336.30
2022-11-01T03:16:58.297Z,319.90
2022-11-01T03:17:58.280Z,352.10
2022-11-01T03:18:58.298Z,431.70
2022-11-01T03:19:58.274Z,456.90
2022-11-01T03:20:58.256Z,466.20
2022-11-01T03:21:58.279Z,449.30
2022-11-01T03:22:58.232Z,467.00
2022-11-01T03:23:58.235Z,444.30
2022-11-01T03:24:58.203Z,452.50
2022-11-01T03:25:58.210Z,452.20
2022-11-01T03:26:58.203Z,462.90
2022-11-01T03:27:58.178Z,448.40
2022-11-01T03:28:58.184Z,444.00
2022-11-01T03:29:58.164Z,456.00
2022-11-01T03:30:58.147Z,459.00
2022-11-01T03:31:58.183Z,449.80
2022-11-01T03:32:58.132Z,458.60
2022-11-01T03:33:58.133Z,441.80
2022-11-01T03:34:58.109Z,435.00
2022-11-01T03:35:58.100Z,425.60
2022-11-01T03:36:58.115Z,430.20
2022-11-01T03:37:58.074Z,446.30
2022-11-01T03:38:58.080Z,447.30
2022-11-01T03:39:58.063Z,461.20
2022-11-01T03:40:58.035Z,459.60
2022-11-01T03:41:58.068Z,458.50
2022-11-01T03:42:58.012Z,449.10
2022-11-01T03:43:57.993Z,450.10
2022-11-01T03:44:57.989Z,434.70
2022-11-01T03:45:57.989Z,404.80
2022-11-01T03:46:57.994Z,383.30
2022-11-01T03:47:57.952Z,372.60
2022-11-01T03:48:57.947Z,360.20
2022-11-01T03:49:57.945Z,372.40
2022-11-01T03:50:57.929Z,399.40
2022-11-01T03:51:57.932Z,398.20
2022-11-01T03:52:57.878Z,399.30
2022-11-01T03:53:57.876Z,400.00
2022-11-01T03:54:57.867Z,403.00
2022-11-01T03:55:57.882Z,447.00
2022-11-01T03:56:57.891Z,456.70
2022-11-01T03:57:57.860Z,459.30
2022-11-01T03:58:57.837Z,465.10
2022-11-01T03:59:57.814Z,423.90
2022-11-01T04:00:57.871Z,394.50
2022-11-01T04:01:58.046Z,325.20
2022-11-01T04:02:57.795Z,307.20
2022-11-01T04:03:57.775Z,317.40
2022-11-01T04:04:57.770Z,365.00
2022-11-01T04:05:57.764Z,409.80
2022-11-01T04:06:57.772Z,392.20
2022-11-01T04:07:57.738Z,385.70
2022-11-01T04:08:57.714Z,385.80
2022-11-01T04:09:57.722Z,373.00
2022-11-01T04:10:57.692Z,361.90
2022-11-01T04:11:57.670Z,374.30
2022-11-01T04:12:57.715Z,383.30
2022-11-01T04:13:57.668Z,362.00
2022-11-01T04:14:57.663Z,366.70
2022-11-01T04:15:57.654Z,363.40
2022-11-01T04:16:57.629Z,339.30
2022-11-01T04:17:57.659Z,305.10
2022-11-01T04:18:57.609Z,297.00
2022-11-01T04:19:57.595Z,300.30
2022-11-01T04:20:57.568Z,314.30
2022-11-01T04:21:57.594Z,317.50
2022-11-01T04:22:57.605Z,325.80
2022-11-01T04:23:57.570Z,337.50
2022-11-01T04:24:57.557Z,164.40
2022-11-01T04:25:57.553Z,370.80
2022-11-01T04:26:57.506Z,364.10
2022-11-01T04:27:57.526Z,366.30
2022-11-01T04:28:57.797Z,232.90
2022-11-01T04:29:57.467Z,327.20
2022-11-01T04:30:57.468Z,343.20
2022-11-01T04:31:57.462Z,303.90
2022-11-01T04:32:57.475Z,224.00
2022-11-01T04:33:57.442Z,264.00
2022-11-01T04:34:57.477Z,273.30
2022-11-01T04:35:57.418Z,185.70
2022-11-01T04:36:57.423Z,290.60
2022-11-01T04:37:57.435Z,323.30
2022-11-01T04:38:57.377Z,95.40
2022-11-01T04:39:57.382Z,370.20
2022-11-01T04:40:57.350Z,355.90
2022-11-01T04:41:57.357Z,353.00
2022-11-01T04:42:57.350Z,251.80
2022-11-01T04:43:57.317Z,352.40
2022-11-01T04:44:57.323Z,120.90
2022-11-01T04:45:57.306Z,327.60
2022-11-01T04:46:57.293Z,301.60
2022-11-01T04:47:57.321Z,260.10
2022-11-01T04:48:57.243Z,288.40
2022-11-01T04:49:57.251Z,335.10
2022-11-01T04:50:57.256Z,311.10
2022-11-01T04:51:57.233Z,325.90
2022-11-01T04:52:57.250Z,88.40
2022-11-01T04:53:57.226Z,338.80
2022-11-01T04:54:57.191Z,320.10
2022-11-01T04:55:57.198Z,57.80
2022-11-01T04:56:57.179Z,332.10
2022-11-01T04:57:57.211Z,77.60
2022-11-01T04:58:57.152Z,322.50
2022-11-01T04:59:57.136Z,345.00
2022-11-01T05:00:57.175Z,153.20
2022-11-01T05:01:57.149Z,347.30
2022-11-01T05:02:57.117Z,397.80
2022-11-01T05:03:57.111Z,47.60
2022-11-01T05:04:57.065Z,339.20
2022-11-01T05:05:57.060Z,284.60
2022-11-01T05:06:57.038Z,282.00
2022-11-01T05:07:57.081Z,343.40
2022-11-01T05:08:57.079Z,362.40
2022-11-01T05:09:57.037Z,94.30
2022-11-01T05:10:57.041Z,360.70
2022-11-01T05:11:57.010Z,372.90
2022-11-01T05:12:56.973Z,49.80
2022-11-01T05:13:57.035Z,303.40
2022-11-01T05:14:57.127Z,347.10
2022-11-01T05:16:18.487Z,67.40
2022-11-01T05:16:57.952Z,294.70
2022-11-01T05:17:56.942Z,371.60
2022-11-01T05:18:56.959Z,44.40
2022-11-01T05:19:56.919Z,278.50
2022-11-01T05:20:56.891Z,343.90
2022-11-01T05:21:56.897Z,368.80
2022-11-01T05:22:56.876Z,47.30
2022-11-01T05:23:56.903Z,274.30
2022-11-01T05:24:56.855Z,421.30
2022-11-01T05:25:56.829Z,57.30
2022-11-01T05:26:56.839Z,305.90
2022-11-01T05:27:56.866Z,431.90
2022-11-01T05:28:56.806Z,386.40
2022-11-01T05:29:56.800Z,84.30
2022-11-01T05:30:56.784Z,313.30
2022-11-01T05:31:56.786Z,156.30
2022-11-01T05:32:56.813Z,411.10
2022-11-01T05:33:56.764Z,218.10
2022-11-01T05:34:56.740Z,323.80
2022-11-01T05:35:56.722Z,458.00
2022-11-01T05:36:56.720Z,53.90
2022-11-01T05:37:56.701Z,392.40
2022-11-01T05:38:56.730Z,470.10
2022-11-01T05:39:56.659Z,69.10
2022-11-01T05:40:56.660Z,468.20
2022-11-01T05:41:59.890Z,63.00
2022-11-01T05:42:57.633Z,400.30
2022-11-01T05:43:56.671Z,84.20
2022-11-01T05:44:56.614Z,452.30
2022-11-01T05:45:56.620Z,451.40
2022-11-01T05:46:56.617Z,252.00
2022-11-01T05:47:56.585Z,441.60
2022-11-01T05:48:56.617Z,49.70
2022-11-01T05:49:56.561Z,299.60
2022-11-01T05:50:56.563Z,448.30
2022-11-01T05:51:56.560Z,270.30
2022-11-01T05:52:56.547Z,295.00
2022-11-01T05:53:56.558Z,150.20
2022-11-01T05:54:56.521Z,334.80
2022-11-01T05:55:56.522Z,58.90
2022-11-01T05:56:56.484Z,303.40
2022-11-01T05:57:56.486Z,480.80
2022-11-01T05:58:56.483Z,113.80
2022-11-01T05:59:56.447Z,312.20
2022-11-01T06:00:56.429Z,483.60
2022-11-01T06:01:56.559Z,131.60
2022-11-01T06:02:56.422Z,311.60
2022-11-01T06:03:56.455Z,457.90
2022-11-01T06:05:00.377Z,229.60
2022-11-01T06:05:57.387Z,329.40
2022-11-01T06:06:56.355Z,357.00
2022-11-01T06:07:56.367Z,340.60
2022-11-01T06:08:56.396Z,99.50
2022-11-01T06:09:56.336Z,329.50
2022-11-01T06:10:56.322Z,396.60
2022-11-01T06:11:56.299Z,115.70
2022-11-01T06:12:56.303Z,360.70
2022-11-01T06:13:56.334Z,44.70
2022-11-01T06:14:56.282Z,385.50
2022-11-01T06:15:56.256Z,158.50
2022-11-01T06:16:56.226Z,417.90
2022-11-01T06:17:56.230Z,356.10
2022-11-01T06:18:56.268Z,361.80
2022-11-01T06:19:56.228Z,143.70
2022-11-01T06:20:56.210Z,402.00
2022-11-01T06:21:56.220Z,395.80
2022-11-01T06:22:56.174Z,110.90
2022-11-01T06:23:56.207Z,410.30
2022-11-01T06:24:56.160Z,379.70
2022-11-01T06:25:56.132Z,264.20
2022-11-01T06:26:56.147Z,386.90
2022-11-01T06:27:56.124Z,236.10
2022-11-01T06:28:56.175Z,381.20
2022-11-01T06:29:56.102Z,401.90
2022-11-01T06:30:56.123Z,100.80
2022-11-01T06:31:56.071Z,413.50
2022-11-01T06:32:56.070Z,372.30
2022-11-01T06:33:56.085Z,366.80
2022-11-01T06:34:56.032Z,207.50
2022-11-01T06:35:56.044Z,385.30
2022-11-01T06:36:56.025Z,354.70
2022-11-01T06:37:56.027Z,295.70
2022-11-01T06:38:56.059Z,367.70
2022-11-01T06:39:55.987Z,269.30
2022-11-01T06:40:56.027Z,403.00
2022-11-01T06:41:55.972Z,78.60
2022-11-01T06:42:55.956Z,424.80
2022-11-01T06:43:55.991Z,124.00
2022-11-01T06:44:55.924Z,431.00
2022-11-01T06:45:55.936Z,423.70
2022-11-01T06:46:55.931Z,89.80
2022-11-01T06:47:55.910Z,178.00
2022-11-01T06:48:55.922Z,429.20
2022-11-01T06:49:55.887Z,127.50
2022-11-01T06:50:56.014Z,424.30
2022-11-01T06:51:55.848Z,412.40
2022-11-01T06:52:55.836Z,401.80
2022-11-01T06:53:55.853Z,194.40
2022-11-01T06:54:55.834Z,356.00
2022-11-01T06:55:55.804Z,77.00
2022-11-01T06:56:55.802Z,181.20
2022-11-01T06:57:55.847Z,267.60
2022-11-01T06:58:55.783Z,86.00
2022-11-01T06:59:55.772Z,149.50
2022-11-01T07:00:55.774Z,243.10
2022-11-01T07:01:55.829Z,165.70
2022-11-01T07:02:55.809Z,121.20
2022-11-01T07:03:55.749Z,135.30
2022-11-01T07:04:55.702Z,251.80
2022-11-01T07:05:55.710Z,81.20
2022-11-01T07:06:55.678Z,217.10
2022-11-01T07:07:55.664Z,190.10
2022-11-01T07:08:55.684Z,85.10
2022-11-01T07:09:55.658Z,159.80
2022-11-01T07:10:55.626Z,229.00
2022-11-01T07:11:55.634Z,205.90
2022-11-01T07:12:55.627Z,118.80
2022-11-01T07:13:55.651Z,148.80
2022-11-01T07:14:55.601Z,240.10
2022-11-01T07:15:55.580Z,237.60
2022-11-01T07:16:55.561Z,189.40
2022-11-01T07:17:55.581Z,252.20
2022-11-01T07:18:55.591Z,282.10
2022-11-01T07:19:55.558Z,241.10
2022-11-01T07:20:55.524Z,220.10
2022-11-01T07:21:55.533Z,245.00
2022-11-01T07:22:55.500Z,193.40
2022-11-01T07:23:55.521Z,337.00
2022-11-01T07:24:55.480Z,375.10
2022-11-01T07:25:55.502Z,412.90
2022-11-01T07:26:55.440Z,620.70
2022-11-01T07:27:55.443Z,530.40
2022-11-01T07:28:55.461Z,321.90
2022-11-01T07:29:55.416Z,240.60
2022-11-01T07:30:55.409Z,1645.90
2022-11-01T07:31:55.419Z,1999.90
2022-11-01T07:32:55.402Z,193.10
2022-11-01T07:33:55.412Z,1999.90
2022-11-01T07:34:55.361Z,166.60
2022-11-01T07:35:55.379Z,1999.90
2022-11-01T07:36:55.364Z,158.50
2022-11-01T07:37:55.345Z,217.30
2022-11-01T07:38:55.379Z,1999.90
2022-11-01T07:39:55.325Z,1999.90
2022-11-01T07:40:55.316Z,1999.90
2022-11-01T07:41:55.311Z,556.30
2022-11-01T07:42:55.302Z,1999.90
2022-11-01T07:43:55.324Z,1999.90
2022-11-01T07:44:55.262Z,1999.90
2022-11-01T07:45:55.253Z,1999.90
2022-11-01T07:46:55.246Z,1999.90
2022-11-01T07:47:55.240Z,1999.90
2022-11-01T07:48:55.251Z,1999.90
2022-11-01T07:49:55.201Z,1999.90
2022-11-01T07:50:55.189Z,1999.90
2022-11-01T07:51:57.885Z,1999.90
2022-11-01T07:52:56.172Z,1999.90
2022-11-01T07:53:55.229Z,1999.90
2022-11-01T07:54:55.152Z,1999.90
2022-11-01T07:55:55.121Z,1999.90
2022-11-01T07:56:55.124Z,1999.90
2022-11-01T07:57:55.095Z,1999.90
2022-11-01T07:58:55.127Z,1999.90
2022-11-01T07:59:55.098Z,1999.90
2022-11-01T08:00:55.092Z,1999.90
2022-11-01T08:01:55.120Z,1999.90
2022-11-01T08:02:55.037Z,1999.90
2022-11-01T08:03:55.101Z,1999.90
2022-11-01T08:04:55.010Z,1999.90
2022-11-01T08:05:55.026Z,1999.90
2022-11-01T08:06:55.021Z,1999.90
2022-11-01T08:07:54.985Z,1999.90
2022-11-01T08:08:55.011Z,1999.90
2022-11-01T08:09:54.961Z,1999.90
2022-11-01T08:10:54.988Z,1999.90
2022-11-01T08:11:54.969Z,1999.90
2022-11-01T08:12:54.943Z,1999.90
2022-11-01T08:13:59.273Z,1999.90
2022-11-01T08:14:55.914Z,1999.90
2022-11-01T08:15:54.904Z,1999.90
2022-11-01T08:16:54.869Z,1999.90
2022-11-01T08:17:54.892Z,1999.90
2022-11-01T08:18:54.869Z,1999.90
2022-11-01T08:19:54.885Z,1999.90
2022-11-01T08:20:54.861Z,1999.90
2022-11-01T08:21:54.819Z,1999.90
2022-11-01T08:22:54.842Z,1999.90
2022-11-01T08:23:54.807Z,1999.90
2022-11-01T08:24:54.824Z,1999.90
2022-11-01T08:25:54.780Z,1999.90
2022-11-01T08:26:54.781Z,1999.90
2022-11-01T08:27:54.765Z,1999.90
2022-11-01T08:28:54.763Z,1999.90
2022-11-01T08:29:54.778Z,1999.90
2022-11-01T08:30:54.768Z,1999.90
2022-11-01T08:31:54.749Z,1999.90
2022-11-01T08:32:54.714Z,1999.90
2022-11-01T08:33:54.710Z,1999.90
2022-11-01T08:34:54.723Z,1999.90
2022-11-01T08:35:54.700Z,1999.90
2022-11-01T08:36:54.668Z,1999.90
2022-11-01T08:37:54.644Z,1999.90
2022-11-01T08:38:54.743Z,1999.90
2022-11-01T08:39:54.647Z,1999.90
2022-11-01T08:40:54.639Z,1999.90
2022-11-01T08:41:54.638Z,1999.90
2022-11-01T08:42:54.600Z,1999.90
2022-11-01T08:43:54.604Z,1999.90
2022-11-01T08:44:54.638Z,1999.90
2022-11-01T08:45:54.607Z,1999.90
2022-11-01T08:46:54.572Z,1999.90
2022-11-01T08:47:54.541Z,1999.90
2022-11-01T08:48:54.538Z,1999.90
2022-11-01T08:49:54.572Z,1999.90
2022-11-01T08:50:54.501Z,1999.90
2022-11-01T08:51:54.474Z,1999.90
2022-11-01T08:52:54.486Z,1999.90
2022-11-01T08:53:54.478Z,1999.90
2022-11-01T08:54:54.510Z,1999.90
2022-11-01T08:55:54.462Z,1999.90
2022-11-01T08:56:54.449Z,1999.90
2022-11-01T08:57:54.438Z,1999.90
2022-11-01T08:58:54.426Z,1999.90
2022-11-01T08:59:54.444Z,1999.90
2022-11-01T09:00:54.441Z,1999.90
2022-11-01T09:01:54.456Z,1999.90
2022-11-01T09:02:54.382Z,1999.90
2022-11-01T09:03:54.355Z,1999.90
2022-11-01T09:04:54.390Z,1999.90
2022-11-01T09:05:54.331Z,1999.90
2022-11-01T09:06:54.333Z,1999.90
2022-11-01T09:07:54.327Z,1999.90
2022-11-01T09:08:54.305Z,1999.90
2022-11-01T09:09:54.321Z,1999.90
2022-11-01T09:10:54.274Z,1999.90
2022-11-01T09:11:54.276Z,1999.90
2022-11-01T09:12:54.249Z,1999.90
2022-11-01T09:13:54.236Z,1999.90
2022-11-01T09:14:54.263Z,1999.90
2022-11-01T09:15:57.245Z,1999.90
2022-11-01T09:16:54.205Z,1999.90
2022-11-01T09:17:54.191Z,1999.90
2022-11-01T09:18:54.215Z,1999.90
2022-11-01T09:19:54.199Z,1999.90
2022-11-01T09:20:54.170Z,1999.90
2022-11-01T09:21:54.154Z,1999.90
2022-11-01T09:22:54.148Z,1999.90
2022-11-01T09:23:54.142Z,1999.90
2022-11-01T09:24:54.170Z,1999.90
2022-11-01T09:25:54.119Z,1999.90
2022-11-01T09:26:54.109Z,1711.40
2022-11-01T09:27:54.074Z,1999.90
2022-11-01T09:28:54.088Z,1638.10
2022-11-01T09:29:54.099Z,1999.90
2022-11-01T09:31:01.339Z,1999.90
2022-11-01T09:31:55.064Z,1224.90
2022-11-01T09:32:54.066Z,1187.30
2022-11-01T09:33:54.025Z,898.00
2022-11-01T09:34:54.048Z,1963.20
2022-11-01T09:35:59.171Z,1822.00
2022-11-01T09:36:55.007Z,1139.40
2022-11-01T09:37:53.979Z,651.60
2022-11-01T09:38:53.968Z,1019.30
2022-11-01T09:39:53.991Z,814.90
2022-11-01T09:40:53.950Z,459.40
2022-11-01T09:41:53.952Z,47.60
2022-11-01T09:42:57.853Z,32.30
2022-11-01T09:43:54.917Z,51.40
2022-11-01T09:44:53.930Z,569.00
2022-11-01T09:45:53.890Z,222.30
2022-11-01T09:46:56.647Z,913.70
2022-11-01T09:47:54.867Z,356.80
2022-11-01T09:48:53.879Z,66.00
2022-11-01T09:49:53.839Z,103.10
2022-11-01T09:50:53.814Z,123.40
2022-11-01T09:51:53.815Z,255.70
2022-11-01T09:52:53.830Z,45.00
2022-11-01T09:53:53.798Z,32.30
2022-11-01T09:54:53.855Z,28.10
2022-11-01T09:55:53.785Z,21.60
2022-11-01T09:56:53.767Z,18.60
2022-11-01T09:57:53.760Z,85.60
2022-11-01T09:58:53.748Z,20.70
2022-11-01T09:59:53.782Z,19.60
2022-11-01T10:00:53.780Z,22.60
2022-11-01T10:01:53.819Z,20.20
2022-11-01T10:02:53.680Z,15.80
2022-11-01T10:03:53.686Z,13.00
2022-11-01T10:04:53.707Z,11.60
2022-11-01T10:05:53.665Z,10.80
2022-11-01T10:06:53.672Z,9.70
2022-11-01T10:07:53.650Z,10.90
2022-11-01T10:08:53.640Z,9.50
2022-11-01T10:09:53.675Z,9.90
2022-11-01T10:10:53.607Z,10.40
2022-11-01T10:11:53.609Z,9.90
2022-11-01T10:12:53.582Z,11.50
2022-11-01T10:13:53.595Z,10.90
2022-11-01T10:14:53.607Z,11.40
2022-11-01T10:15:53.566Z,11.70
2022-11-01T10:16:53.546Z,11.30
2022-11-01T10:17:53.521Z,10.90
2022-11-01T10:18:53.524Z,12.10
2022-11-01T10:19:53.559Z,11.10
2022-11-01T10:20:53.507Z,11.80
2022-11-01T10:21:53.488Z,13.20
2022-11-01T10:22:53.497Z,12.00
2022-11-01T10:23:53.446Z,12.10
2022-11-01T10:24:53.472Z,11.70
2022-11-01T10:25:53.425Z,13.40
2022-11-01T10:26:53.447Z,13.00
2022-11-01T10:27:53.423Z,12.30
2022-11-01T10:28:53.412Z,12.30
2022-11-01T10:29:53.433Z,12.10
2022-11-01T10:30:53.398Z,12.00
2022-11-01T10:31:53.376Z,12.40
2022-11-01T10:32:53.361Z,15.20
2022-11-01T10:33:53.371Z,12.80
2022-11-01T10:34:53.378Z,13.70
2022-11-01T10:35:53.321Z,13.80
2022-11-01T10:36:53.313Z,13.30
2022-11-01T10:38:04.323Z,14.40
2022-11-01T10:39:56.249Z,13.40
2022-11-01T10:40:53.303Z,14.70
2022-11-01T10:41:53.254Z,18.70
2022-11-01T10:42:53.263Z,19.80
2022-11-01T10:43:53.245Z,18.50
2022-11-01T10:44:53.275Z,17.70
2022-11-01T10:45:53.223Z,18.90
2022-11-01T10:46:53.205Z,43.70
2022-11-01T10:47:53.242Z,99.60
2022-11-01T10:48:53.188Z,61.90
2022-11-01T10:50:05.542Z,18.30
2022-11-01T10:50:54.168Z,15.20
2022-11-01T10:51:53.149Z,17.70
2022-11-01T10:52:53.141Z,18.40
2022-11-01T10:53:53.126Z,14.80
2022-11-01T10:54:53.160Z,13.80
2022-11-01T10:55:53.076Z,12.70
2022-11-01T10:56:53.111Z,12.20
2022-11-01T10:57:53.091Z,12.80
2022-11-01T10:58:53.065Z,13.60
2022-11-01T10:59:53.043Z,11.70
2022-11-01T11:00:53.204Z,10.80
2022-11-01T11:01:53.218Z,11.00
2022-11-01T11:02:53.020Z,11.20
2022-11-01T11:03:53.018Z,10.10
2022-11-01T11:04:53.052Z,9.60
2022-11-01T11:05:52.981Z,7.70
2022-11-01T11:06:52.999Z,9.50
2022-11-01T11:07:52.957Z,8.90
2022-11-01T11:08:52.968Z,9.00
2022-11-01T11:09:52.983Z,8.30
2022-11-01T11:10:52.971Z,8.10
2022-11-01T11:11:52.925Z,8.10
2022-11-01T11:12:52.939Z,10.70
2022-11-01T11:13:52.929Z,11.10
2022-11-01T11:14:52.879Z,11.70
2022-11-01T11:15:52.896Z,10.40
2022-11-01T11:16:52.863Z,10.50
2022-11-01T11:17:52.860Z,13.10
2022-11-01T11:18:52.845Z,11.90
2022-11-01T11:19:52.844Z,13.30
2022-11-01T11:20:52.926Z,12.00
2022-11-01T11:21:52.800Z,11.90
2022-11-01T11:22:52.809Z,11.90
2022-11-01T11:23:52.789Z,12.80
2022-11-01T11:24:52.792Z,13.20
2022-11-01T11:25:52.819Z,13.80
2022-11-01T11:26:54.309Z,12.30
2022-11-01T11:27:52.760Z,12.90
2022-11-01T11:28:52.769Z,14.10
2022-11-01T11:29:52.706Z,14.60
2022-11-01T11:30:52.739Z,12.10
2022-11-01T11:31:52.678Z,13.00
2022-11-01T11:32:52.707Z,14.00
2022-11-01T11:33:52.648Z,12.10
2022-11-01T11:34:52.645Z,13.30
2022-11-01T11:35:52.665Z,12.40
2022-11-01T11:36:52.624Z,11.70
2022-11-01T11:37:52.633Z,14.40
2022-11-01T11:38:52.633Z,13.90
2022-11-01T11:39:52.621Z,12.00
2022-11-01T11:40:52.651Z,11.50
2022-11-01T11:41:52.571Z,11.50
2022-11-01T11:42:52.577Z,10.50
2022-11-01T11:43:52.545Z,14.40
2022-11-01T11:44:55.562Z,11.40
2022-11-01T11:45:52.591Z,13.40
2022-11-01T11:46:52.552Z,14.50
2022-11-01T11:47:52.511Z,14.10
2022-11-01T11:48:52.498Z,14.60
2022-11-01T11:49:52.491Z,16.40
2022-11-01T11:50:52.470Z,16.60
2022-11-01T11:51:52.490Z,16.50
2022-11-01T11:52:52.433Z,17.10
2022-11-01T11:53:52.467Z,16.00
2022-11-01T11:54:52.428Z,13.00
2022-11-01T11:55:52.414Z,16.00
2022-11-01T11:56:52.443Z,16.40
2022-11-01T11:57:52.414Z,17.00
2022-11-01T11:58:52.390Z,14.70
2022-11-01T11:59:52.365Z,15.20
2022-11-01T12:00:52.399Z,15.00
2022-11-01T12:01:52.554Z,14.50
2022-11-01T12:02:52.422Z,13.50
2022-11-01T12:03:52.339Z,14.70
2022-11-01T12:04:52.320Z,15.70
2022-11-01T12:05:52.312Z,13.00
2022-11-01T12:06:52.332Z,14.50
2022-11-01T12:07:52.283Z,14.70
2022-11-01T12:08:52.266Z,13.30
2022-11-01T12:09:52.244Z,14.00
2022-11-01T12:10:52.270Z,13.40
2022-11-01T12:11:52.221Z,13.20
2022-11-01T12:12:52.228Z,13.50
2022-11-01T12:13:52.234Z,14.00
2022-11-01T12:14:52.246Z,15.40
2022-11-01T12:15:52.232Z,13.30
2022-11-01T12:16:52.196Z,15.20
2022-11-01T12:17:52.161Z,16.90
2022-11-01T12:18:52.167Z,16.30
2022-11-01T12:19:52.151Z,19.60
2022-11-01T12:20:52.164Z,16.50
2022-11-01T12:21:52.132Z,19.10
2022-11-01T12:22:52.117Z,14.70
2022-11-01T12:23:52.131Z,15.00
2022-11-01T12:24:52.093Z,15.60
2022-11-01T12:25:52.104Z,12.00
2022-11-01T12:26:52.076Z,11.30
2022-11-01T12:27:52.065Z,10.30
2022-11-01T12:28:52.036Z,13.70
2022-11-01T12:29:52.035Z,12.10
2022-11-01T12:30:52.073Z,12.40